sensor_id;sensor_type;location;lat;lon;timestamp;P1;durP1;ratioP1;P2;durP2;ratioP2
68509;SDS011;55512;50.102;19.958;2023-08-30T00:00:38;8.60;;;4.70;;
68509;SDS011;55512;50.102;19.958;2023-08-30T00:03:04;8.00;;;4.60;;
68509;SDS011;55512;50.102;19.958;2023-08-30T00:05:31;9.10;;;3.90;;
68509;SDS011;55512;50.102;19.958;2023-08-30T00:07:57;9.80;;;4.00;;
68509;SDS011;55512;50.102;19.958;2023-08-30T00:10:23;9.70;;;4.00;;
68509;SDS011;55512;50.102;19.958;2023-08-30T00:12:48;7.60;;;3.90;;
68509;SDS011;55512;50.102;19.958;2023-08-30T00:15:14;9.90;;;4.00;;
68509;SDS011;55512;50.102;19.958;2023-08-30T00:17:39;8.20;;;3.80;;
68509;SDS011;55512;50.102;19.958;2023-08-30T00:20:05;8.70;;;4.00;;
68509;SDS011;55512;50.102;19.958;2023-08-30T00:22:32;7.50;;;3.70;;
68509;SDS011;55512;50.102;19.958;2023-08-30T00:24:58;7.20;;;3.90;;
68509;SDS011;55512;50.102;19.958;2023-08-30T00:27:24;8.60;;;3.70;;
68509;SDS011;55512;50.102;19.958;2023-08-30T00:29:49;7.70;;;3.70;;
68509;SDS011;55512;50.102;19.958;2023-08-30T00:32:15;6.20;;;3.50;;
68509;SDS011;55512;50.102;19.958;2023-08-30T00:34:40;7.20;;;3.40;;
68509;SDS011;55512;50.102;19.958;2023-08-30T00:37:06;7.60;;;3.20;;
68509;SDS011;55512;50.102;19.958;2023-08-30T00:39:31;7.50;;;3.70;;
68509;SDS011;55512;50.102;19.958;2023-08-30T00:41:57;7.60;;;3.50;;
68509;SDS011;55512;50.102;19.958;2023-08-30T00:44:22;7.80;;;3.50;;
68509;SDS011;55512;50.102;19.958;2023-08-30T00:46:48;6.50;;;3.60;;
68509;SDS011;55512;50.102;19.958;2023-08-30T00:49:14;7.70;;;3.80;;
68509;SDS011;55512;50.102;19.958;2023-08-30T00:51:39;7.60;;;4.00;;
68509;SDS011;55512;50.102;19.958;2023-08-30T00:54:06;7.40;;;4.10;;
68509;SDS011;55512;50.102;19.958;2023-08-30T00:56:32;7.70;;;4.20;;
68509;SDS011;55512;50.102;19.958;2023-08-30T00:58:58;6.70;;;3.70;;
68509;SDS011;55512;50.102;19.958;2023-08-30T01:01:25;8.20;;;4.50;;
68509;SDS011;55512;50.102;19.958;2023-08-30T01:03:51;8.50;;;4.40;;
68509;SDS011;55512;50.102;19.958;2023-08-30T01:06:16;6.80;;;3.60;;
68509;SDS011;55512;50.102;19.958;2023-08-30T01:08:42;8.00;;;4.30;;
68509;SDS011;55512;50.102;19.958;2023-08-30T01:13:59;7.90;;;3.90;;
68509;SDS011;55512;50.102;19.958;2023-08-30T01:16:30;7.80;;;4.10;;
68509;SDS011;55512;50.102;19.958;2023-08-30T01:18:58;10.50;;;4.00;;
68509;SDS011;55512;50.102;19.958;2023-08-30T01:21:50;8.20;;;4.00;;
68509;SDS011;55512;50.102;19.958;2023-08-30T01:24:29;8.80;;;4.30;;
68509;SDS011;55512;50.102;19.958;2023-08-30T01:27:13;8.70;;;4.80;;
68509;SDS011;55512;50.102;19.958;2023-08-30T01:29:43;7.90;;;4.20;;
68509;SDS011;55512;50.102;19.958;2023-08-30T01:32:10;8.20;;;4.00;;
68509;SDS011;55512;50.102;19.958;2023-08-30T01:34:38;6.80;;;3.60;;
68509;SDS011;55512;50.102;19.958;2023-08-30T01:37:07;7.30;;;3.50;;
68509;SDS011;55512;50.102;19.958;2023-08-30T01:39:34;7.50;;;4.10;;
68509;SDS011;55512;50.102;19.958;2023-08-30T01:42:03;6.00;;;2.50;;
68509;SDS011;55512;50.102;19.958;2023-08-30T01:44:30;6.50;;;2.90;;
68509;SDS011;55512;50.102;19.958;2023-08-30T01:46:56;7.60;;;3.20;;
68509;SDS011;55512;50.102;19.958;2023-08-30T01:49:25;6.50;;;3.60;;
68509;SDS011;55512;50.102;19.958;2023-08-30T01:51:53;6.20;;;3.40;;
68509;SDS011;55512;50.102;19.958;2023-08-30T01:54:19;7.60;;;3.30;;
68509;SDS011;55512;50.102;19.958;2023-08-30T01:56:46;6.30;;;3.10;;
68509;SDS011;55512;50.102;19.958;2023-08-30T01:59:12;5.60;;;2.80;;
68509;SDS011;55512;50.102;19.958;2023-08-30T02:01:38;6.30;;;3.20;;
68509;SDS011;55512;50.102;19.958;2023-08-30T02:04:03;6.40;;;3.50;;
68509;SDS011;55512;50.102;19.958;2023-08-30T02:09:02;6.40;;;3.40;;
68509;SDS011;55512;50.102;19.958;2023-08-30T02:11:34;6.70;;;3.00;;
68509;SDS011;55512;50.102;19.958;2023-08-30T02:14:01;6.60;;;3.10;;
68509;SDS011;55512;50.102;19.958;2023-08-30T02:16:32;6.00;;;3.20;;
68509;SDS011;55512;50.102;19.958;2023-08-30T02:18:58;6.60;;;3.40;;
68509;SDS011;55512;50.102;19.958;2023-08-30T02:21:24;6.20;;;3.10;;
68509;SDS011;55512;50.102;19.958;2023-08-30T02:23:51;6.10;;;3.30;;
68509;SDS011;55512;50.102;19.958;2023-08-30T02:26:20;6.60;;;3.20;;
68509;SDS011;55512;50.102;19.958;2023-08-30T02:28:46;6.40;;;3.30;;
68509;SDS011;55512;50.102;19.958;2023-08-30T02:31:12;7.30;;;4.00;;
68509;SDS011;55512;50.102;19.958;2023-08-30T02:33:37;6.10;;;3.60;;
68509;SDS011;55512;50.102;19.958;2023-08-30T02:36:04;6.50;;;3.10;;
68509;SDS011;55512;50.102;19.958;2023-08-30T02:38:29;7.40;;;3.60;;
68509;SDS011;55512;50.102;19.958;2023-08-30T02:40:55;6.80;;;3.80;;
68509;SDS011;55512;50.102;19.958;2023-08-30T02:43:20;6.50;;;3.20;;
68509;SDS011;55512;50.102;19.958;2023-08-30T02:45:46;7.00;;;3.30;;
68509;SDS011;55512;50.102;19.958;2023-08-30T02:48:11;6.20;;;3.00;;
68509;SDS011;55512;50.102;19.958;2023-08-30T02:50:36;7.60;;;3.00;;
68509;SDS011;55512;50.102;19.958;2023-08-30T02:53:02;7.30;;;3.90;;
68509;SDS011;55512;50.102;19.958;2023-08-30T02:55:30;6.30;;;3.50;;
68509;SDS011;55512;50.102;19.958;2023-08-30T02:57:56;7.80;;;3.90;;
68509;SDS011;55512;50.102;19.958;2023-08-30T03:00:21;7.50;;;3.70;;
68509;SDS011;55512;50.102;19.958;2023-08-30T03:02:47;7.20;;;3.80;;
68509;SDS011;55512;50.102;19.958;2023-08-30T03:05:13;8.10;;;3.90;;
68509;SDS011;55512;50.102;19.958;2023-08-30T03:07:38;6.80;;;3.70;;
68509;SDS011;55512;50.102;19.958;2023-08-30T03:10:04;7.10;;;3.60;;
68509;SDS011;55512;50.102;19.958;2023-08-30T03:12:30;8.00;;;4.30;;
68509;SDS011;55512;50.102;19.958;2023-08-30T03:14:56;8.30;;;4.40;;
68509;SDS011;55512;50.102;19.958;2023-08-30T03:17:21;7.80;;;3.90;;
68509;SDS011;55512;50.102;19.958;2023-08-30T03:19:47;8.90;;;4.60;;
68509;SDS011;55512;50.102;19.958;2023-08-30T03:22:12;8.90;;;4.50;;
68509;SDS011;55512;50.102;19.958;2023-08-30T03:24:37;7.40;;;4.20;;
68509;SDS011;55512;50.102;19.958;2023-08-30T03:27:03;8.00;;;4.30;;
68509;SDS011;55512;50.102;19.958;2023-08-30T03:29:29;8.10;;;4.00;;
68509;SDS011;55512;50.102;19.958;2023-08-30T03:31:54;8.00;;;4.10;;
68509;SDS011;55512;50.102;19.958;2023-08-30T03:34:19;8.50;;;4.50;;
68509;SDS011;55512;50.102;19.958;2023-08-30T03:36:45;8.20;;;4.40;;
68509;SDS011;55512;50.102;19.958;2023-08-30T03:39:15;8.60;;;4.50;;
68509;SDS011;55512;50.102;19.958;2023-08-30T03:41:41;8.90;;;4.90;;
68509;SDS011;55512;50.102;19.958;2023-08-30T03:44:06;9.60;;;5.00;;
68509;SDS011;55512;50.102;19.958;2023-08-30T03:46:32;8.70;;;4.30;;
68509;SDS011;55512;50.102;19.958;2023-08-30T03:48:57;8.30;;;4.50;;
68509;SDS011;55512;50.102;19.958;2023-08-30T03:51:22;8.40;;;4.60;;
68509;SDS011;55512;50.102;19.958;2023-08-30T03:53:48;8.20;;;4.40;;
68509;SDS011;55512;50.102;19.958;2023-08-30T03:56:13;10.00;;;4.70;;
68509;SDS011;55512;50.102;19.958;2023-08-30T03:58:39;8.40;;;4.60;;
68509;SDS011;55512;50.102;19.958;2023-08-30T04:01:04;9.80;;;5.30;;
68509;SDS011;55512;50.102;19.958;2023-08-30T04:03:31;8.60;;;4.70;;
68509;SDS011;55512;50.102;19.958;2023-08-30T04:05:57;8.60;;;4.40;;
68509;SDS011;55512;50.102;19.958;2023-08-30T04:08:23;10.00;;;5.10;;
68509;SDS011;55512;50.102;19.958;2023-08-30T04:10:52;8.20;;;4.60;;
68509;SDS011;55512;50.102;19.958;2023-08-30T04:13:18;8.60;;;4.70;;
68509;SDS011;55512;50.102;19.958;2023-08-30T04:15:43;8.70;;;4.60;;
68509;SDS011;55512;50.102;19.958;2023-08-30T04:18:09;9.90;;;4.50;;
68509;SDS011;55512;50.102;19.958;2023-08-30T04:20:34;9.30;;;5.10;;
68509;SDS011;55512;50.102;19.958;2023-08-30T04:23:01;8.90;;;5.50;;
68509;SDS011;55512;50.102;19.958;2023-08-30T04:25:28;8.30;;;4.70;;
68509;SDS011;55512;50.102;19.958;2023-08-30T04:27:54;8.40;;;4.90;;
68509;SDS011;55512;50.102;19.958;2023-08-30T04:30:19;10.00;;;5.50;;
68509;SDS011;55512;50.102;19.958;2023-08-30T04:32:45;8.90;;;4.30;;
68509;SDS011;55512;50.102;19.958;2023-08-30T04:35:10;8.50;;;5.00;;
68509;SDS011;55512;50.102;19.958;2023-08-30T04:37:36;8.60;;;4.70;;
68509;SDS011;55512;50.102;19.958;2023-08-30T04:40:04;9.20;;;5.20;;
68509;SDS011;55512;50.102;19.958;2023-08-30T04:42:36;10.10;;;5.30;;
68509;SDS011;55512;50.102;19.958;2023-08-30T04:45:03;8.90;;;4.90;;
68509;SDS011;55512;50.102;19.958;2023-08-30T04:47:30;7.90;;;5.10;;
68509;SDS011;55512;50.102;19.958;2023-08-30T04:49:56;9.50;;;5.50;;
68509;SDS011;55512;50.102;19.958;2023-08-30T04:52:21;9.60;;;5.60;;
68509;SDS011;55512;50.102;19.958;2023-08-30T04:54:47;9.80;;;5.50;;
68509;SDS011;55512;50.102;19.958;2023-08-30T04:57:14;10.20;;;5.20;;
68509;SDS011;55512;50.102;19.958;2023-08-30T04:59:41;9.90;;;5.40;;
68509;SDS011;55512;50.102;19.958;2023-08-30T05:02:07;9.00;;;5.20;;
68509;SDS011;55512;50.102;19.958;2023-08-30T05:04:33;9.40;;;5.30;;
68509;SDS011;55512;50.102;19.958;2023-08-30T05:06:58;9.00;;;4.80;;
68509;SDS011;55512;50.102;19.958;2023-08-30T05:09:24;9.40;;;5.00;;
68509;SDS011;55512;50.102;19.958;2023-08-30T05:11:53;8.40;;;4.60;;
68509;SDS011;55512;50.102;19.958;2023-08-30T05:14:19;10.00;;;5.20;;
68509;SDS011;55512;50.102;19.958;2023-08-30T05:16:46;8.10;;;4.70;;
68509;SDS011;55512;50.102;19.958;2023-08-30T05:19:11;9.20;;;4.90;;
68509;SDS011;55512;50.102;19.958;2023-08-30T05:21:37;8.70;;;5.40;;
68509;SDS011;55512;50.102;19.958;2023-08-30T05:24:03;9.60;;;5.30;;
68509;SDS011;55512;50.102;19.958;2023-08-30T05:26:31;10.20;;;5.40;;
68509;SDS011;55512;50.102;19.958;2023-08-30T05:28:56;10.70;;;5.70;;
68509;SDS011;55512;50.102;19.958;2023-08-30T05:31:22;8.90;;;4.70;;
68509;SDS011;55512;50.102;19.958;2023-08-30T05:33:47;9.10;;;4.90;;
68509;SDS011;55512;50.102;19.958;2023-08-30T05:36:13;9.70;;;4.60;;
68509;SDS011;55512;50.102;19.958;2023-08-30T05:38:38;10.60;;;5.50;;
68509;SDS011;55512;50.102;19.958;2023-08-30T05:41:03;9.80;;;4.90;;
68509;SDS011;55512;50.102;19.958;2023-08-30T05:43:29;10.00;;;5.40;;
68509;SDS011;55512;50.102;19.958;2023-08-30T05:45:54;9.90;;;4.70;;
68509;SDS011;55512;50.102;19.958;2023-08-30T05:48:20;11.30;;;5.80;;
68509;SDS011;55512;50.102;19.958;2023-08-30T05:50:45;10.20;;;6.20;;
68509;SDS011;55512;50.102;19.958;2023-08-30T05:53:11;12.90;;;5.90;;
68509;SDS011;55512;50.102;19.958;2023-08-30T05:55:36;11.10;;;5.40;;
68509;SDS011;55512;50.102;19.958;2023-08-30T05:58:03;8.90;;;5.20;;
68509;SDS011;55512;50.102;19.958;2023-08-30T06:00:28;10.10;;;5.80;;
68509;SDS011;55512;50.102;19.958;2023-08-30T06:02:54;10.70;;;5.90;;
68509;SDS011;55512;50.102;19.958;2023-08-30T06:05:19;9.80;;;5.40;;
68509;SDS011;55512;50.102;19.958;2023-08-30T06:07:45;9.80;;;5.70;;
68509;SDS011;55512;50.102;19.958;2023-08-30T06:10:10;10.10;;;5.60;;
68509;SDS011;55512;50.102;19.958;2023-08-30T06:12:36;9.80;;;5.60;;
68509;SDS011;55512;50.102;19.958;2023-08-30T06:15:02;11.10;;;5.50;;
68509;SDS011;55512;50.102;19.958;2023-08-30T06:17:28;10.70;;;5.80;;
68509;SDS011;55512;50.102;19.958;2023-08-30T06:19:54;11.20;;;5.90;;
68509;SDS011;55512;50.102;19.958;2023-08-30T06:22:19;13.50;;;5.70;;
68509;SDS011;55512;50.102;19.958;2023-08-30T06:24:45;11.40;;;6.60;;
68509;SDS011;55512;50.102;19.958;2023-08-30T06:27:10;10.20;;;5.60;;
68509;SDS011;55512;50.102;19.958;2023-08-30T06:29:36;11.20;;;5.60;;
68509;SDS011;55512;50.102;19.958;2023-08-30T06:32:01;10.10;;;5.60;;
68509;SDS011;55512;50.102;19.958;2023-08-30T06:34:27;11.50;;;6.40;;
68509;SDS011;55512;50.102;19.958;2023-08-30T06:36:53;10.50;;;5.80;;
68509;SDS011;55512;50.102;19.958;2023-08-30T06:39:18;10.70;;;6.10;;
68509;SDS011;55512;50.102;19.958;2023-08-30T06:41:43;11.40;;;6.30;;
68509;SDS011;55512;50.102;19.958;2023-08-30T06:44:09;11.80;;;6.40;;
68509;SDS011;55512;50.102;19.958;2023-08-30T06:46:34;12.60;;;5.60;;
68509;SDS011;55512;50.102;19.958;2023-08-30T06:49:00;13.30;;;6.50;;
68509;SDS011;55512;50.102;19.958;2023-08-30T06:51:25;10.70;;;5.90;;
68509;SDS011;55512;50.102;19.958;2023-08-30T06:53:50;13.10;;;6.50;;
68509;SDS011;55512;50.102;19.958;2023-08-30T06:56:16;10.30;;;5.90;;
68509;SDS011;55512;50.102;19.958;2023-08-30T06:58:41;10.60;;;5.80;;
68509;SDS011;55512;50.102;19.958;2023-08-30T07:01:07;12.40;;;6.30;;
68509;SDS011;55512;50.102;19.958;2023-08-30T07:03:32;11.40;;;6.10;;
68509;SDS011;55512;50.102;19.958;2023-08-30T07:05:58;13.60;;;6.10;;
68509;SDS011;55512;50.102;19.958;2023-08-30T07:08:23;11.20;;;6.30;;
68509;SDS011;55512;50.102;19.958;2023-08-30T07:10:49;12.90;;;6.60;;
68509;SDS011;55512;50.102;19.958;2023-08-30T07:13:14;13.40;;;7.20;;
68509;SDS011;55512;50.102;19.958;2023-08-30T07:15:40;13.00;;;6.80;;
68509;SDS011;55512;50.102;19.958;2023-08-30T07:18:07;13.30;;;6.60;;
68509;SDS011;55512;50.102;19.958;2023-08-30T07:20:33;12.60;;;5.90;;
68509;SDS011;55512;50.102;19.958;2023-08-30T07:23:00;11.60;;;6.60;;
68509;SDS011;55512;50.102;19.958;2023-08-30T07:25:26;12.90;;;6.40;;
68509;SDS011;55512;50.102;19.958;2023-08-30T07:27:51;10.60;;;5.90;;
68509;SDS011;55512;50.102;19.958;2023-08-30T07:30:17;12.70;;;7.10;;
68509;SDS011;55512;50.102;19.958;2023-08-30T07:32:42;18.30;;;7.30;;
68509;SDS011;55512;50.102;19.958;2023-08-30T07:35:08;16.80;;;7.70;;
68509;SDS011;55512;50.102;19.958;2023-08-30T07:37:34;18.00;;;7.30;;
68509;SDS011;55512;50.102;19.958;2023-08-30T07:40:01;16.70;;;6.60;;
68509;SDS011;55512;50.102;19.958;2023-08-30T07:42:29;12.40;;;6.90;;
68509;SDS011;55512;50.102;19.958;2023-08-30T07:44:55;15.80;;;7.70;;
68509;SDS011;55512;50.102;19.958;2023-08-30T07:47:20;15.40;;;7.50;;
68509;SDS011;55512;50.102;19.958;2023-08-30T07:49:45;14.90;;;7.40;;
68509;SDS011;55512;50.102;19.958;2023-08-30T07:52:11;15.30;;;7.70;;
68509;SDS011;55512;50.102;19.958;2023-08-30T07:54:39;13.70;;;6.60;;
68509;SDS011;55512;50.102;19.958;2023-08-30T07:57:05;14.20;;;7.10;;
68509;SDS011;55512;50.102;19.958;2023-08-30T07:59:33;14.90;;;6.80;;
68509;SDS011;55512;50.102;19.958;2023-08-30T08:02:02;16.00;;;7.50;;
68509;SDS011;55512;50.102;19.958;2023-08-30T08:04:29;15.20;;;7.20;;
68509;SDS011;55512;50.102;19.958;2023-08-30T08:06:54;15.10;;;7.30;;
68509;SDS011;55512;50.102;19.958;2023-08-30T08:09:20;14.80;;;7.70;;
68509;SDS011;55512;50.102;19.958;2023-08-30T08:11:48;12.40;;;6.80;;
68509;SDS011;55512;50.102;19.958;2023-08-30T08:14:14;15.00;;;7.80;;
68509;SDS011;55512;50.102;19.958;2023-08-30T08:16:40;16.30;;;8.20;;
68509;SDS011;55512;50.102;19.958;2023-08-30T08:19:05;17.30;;;8.40;;
68509;SDS011;55512;50.102;19.958;2023-08-30T08:21:32;16.80;;;8.70;;
68509;SDS011;55512;50.102;19.958;2023-08-30T08:23:59;16.20;;;8.40;;
68509;SDS011;55512;50.102;19.958;2023-08-30T08:26:25;16.60;;;8.70;;
68509;SDS011;55512;50.102;19.958;2023-08-30T08:28:50;15.30;;;8.10;;
68509;SDS011;55512;50.102;19.958;2023-08-30T08:31:16;15.60;;;7.50;;
68509;SDS011;55512;50.102;19.958;2023-08-30T08:33:43;16.10;;;7.70;;
68509;SDS011;55512;50.102;19.958;2023-08-30T08:36:08;14.10;;;6.80;;
68509;SDS011;55512;50.102;19.958;2023-08-30T08:38:34;13.80;;;6.40;;
68509;SDS011;55512;50.102;19.958;2023-08-30T08:41:05;14.90;;;7.10;;
68509;SDS011;55512;50.102;19.958;2023-08-30T08:43:33;15.60;;;7.50;;
68509;SDS011;55512;50.102;19.958;2023-08-30T08:46:03;13.60;;;6.60;;
68509;SDS011;55512;50.102;19.958;2023-08-30T08:48:33;18.90;;;7.30;;
68509;SDS011;55512;50.102;19.958;2023-08-30T08:51:03;15.50;;;7.20;;
68509;SDS011;55512;50.102;19.958;2023-08-30T08:53:28;15.50;;;7.60;;
68509;SDS011;55512;50.102;19.958;2023-08-30T08:55:56;13.60;;;6.70;;
68509;SDS011;55512;50.102;19.958;2023-08-30T08:58:24;12.60;;;6.90;;
68509;SDS011;55512;50.102;19.958;2023-08-30T09:00:49;16.60;;;7.10;;
68509;SDS011;55512;50.102;19.958;2023-08-30T09:03:15;19.10;;;7.60;;
68509;SDS011;55512;50.102;19.958;2023-08-30T09:05:43;12.60;;;5.60;;
68509;SDS011;55512;50.102;19.958;2023-08-30T09:08:11;10.40;;;5.80;;
68509;SDS011;55512;50.102;19.958;2023-08-30T09:10:39;11.70;;;5.00;;
68509;SDS011;55512;50.102;19.958;2023-08-30T09:13:05;11.30;;;5.20;;
68509;SDS011;55512;50.102;19.958;2023-08-30T09:15:34;11.60;;;5.30;;
68509;SDS011;55512;50.102;19.958;2023-08-30T09:18:03;9.60;;;5.10;;
68509;SDS011;55512;50.102;19.958;2023-08-30T09:20:29;10.90;;;4.60;;
68509;SDS011;55512;50.102;19.958;2023-08-30T09:22:54;8.70;;;4.40;;
68509;SDS011;55512;50.102;19.958;2023-08-30T09:25:24;8.10;;;4.40;;
68509;SDS011;55512;50.102;19.958;2023-08-30T09:27:57;9.50;;;4.40;;
68509;SDS011;55512;50.102;19.958;2023-08-30T09:30:26;9.20;;;4.30;;
68509;SDS011;55512;50.102;19.958;2023-08-30T09:32:52;7.70;;;4.20;;
68509;SDS011;55512;50.102;19.958;2023-08-30T09:35:18;7.90;;;3.80;;
68509;SDS011;55512;50.102;19.958;2023-08-30T09:37:46;7.70;;;3.80;;
68509;SDS011;55512;50.102;19.958;2023-08-30T09:40:17;8.10;;;3.60;;
68509;SDS011;55512;50.102;19.958;2023-08-30T09:42:44;9.90;;;4.20;;
68509;SDS011;55512;50.102;19.958;2023-08-30T09:45:21;9.60;;;4.60;;
68509;SDS011;55512;50.102;19.958;2023-08-30T09:47:50;7.30;;;3.80;;
68509;SDS011;55512;50.102;19.958;2023-08-30T09:50:20;9.20;;;4.10;;
68509;SDS011;55512;50.102;19.958;2023-08-30T09:52:49;7.20;;;3.90;;
68509;SDS011;55512;50.102;19.958;2023-08-30T09:55:18;8.80;;;3.80;;
68509;SDS011;55512;50.102;19.958;2023-08-30T09:57:44;10.20;;;4.40;;
68509;SDS011;55512;50.102;19.958;2023-08-30T10:00:10;12.40;;;3.90;;
68509;SDS011;55512;50.102;19.958;2023-08-30T10:02:43;8.50;;;3.60;;
68509;SDS011;55512;50.102;19.958;2023-08-30T10:05:12;9.00;;;4.50;;
68509;SDS011;55512;50.102;19.958;2023-08-30T10:07:42;7.80;;;4.40;;
68509;SDS011;55512;50.102;19.958;2023-08-30T10:10:09;7.90;;;4.10;;
68509;SDS011;55512;50.102;19.958;2023-08-30T10:12:35;10.40;;;3.90;;
68509;SDS011;55512;50.102;19.958;2023-08-30T10:15:02;8.80;;;3.90;;
68509;SDS011;55512;50.102;19.958;2023-08-30T10:17:31;8.60;;;4.10;;
68509;SDS011;55512;50.102;19.958;2023-08-30T10:20:01;11.60;;;4.20;;
68509;SDS011;55512;50.102;19.958;2023-08-30T10:22:30;10.90;;;4.40;;
68509;SDS011;55512;50.102;19.958;2023-08-30T10:25:06;9.00;;;4.60;;
68509;SDS011;55512;50.102;19.958;2023-08-30T10:27:38;14.60;;;4.90;;
68509;SDS011;55512;50.102;19.958;2023-08-30T10:30:09;10.10;;;5.20;;
68509;SDS011;55512;50.102;19.958;2023-08-30T10:32:43;8.70;;;5.10;;
68509;SDS011;55512;50.102;19.958;2023-08-30T10:35:14;30.00;;;11.80;;
68509;SDS011;55512;50.102;19.958;2023-08-30T10:37:41;12.30;;;5.90;;
68509;SDS011;55512;50.102;19.958;2023-08-30T10:40:08;10.60;;;5.20;;
68509;SDS011;55512;50.102;19.958;2023-08-30T10:42:34;8.90;;;5.00;;
68509;SDS011;55512;50.102;19.958;2023-08-30T10:45:06;9.00;;;4.30;;
68509;SDS011;55512;50.102;19.958;2023-08-30T10:47:34;9.40;;;4.70;;
68509;SDS011;55512;50.102;19.958;2023-08-30T10:50:08;11.10;;;5.50;;
68509;SDS011;55512;50.102;19.958;2023-08-30T10:52:35;8.50;;;4.60;;
68509;SDS011;55512;50.102;19.958;2023-08-30T10:55:15;11.20;;;4.60;;
68509;SDS011;55512;50.102;19.958;2023-08-30T10:57:42;15.10;;;4.70;;
68509;SDS011;55512;50.102;19.958;2023-08-30T11:02:44;9.00;;;4.40;;
68509;SDS011;55512;50.102;19.958;2023-08-30T11:05:14;8.50;;;3.80;;
68509;SDS011;55512;50.102;19.958;2023-08-30T11:07:42;12.60;;;4.90;;
68509;SDS011;55512;50.102;19.958;2023-08-30T11:10:09;11.10;;;4.80;;
68509;SDS011;55512;50.102;19.958;2023-08-30T11:12:35;10.80;;;4.70;;
68509;SDS011;55512;50.102;19.958;2023-08-30T11:15:01;10.70;;;4.50;;
68509;SDS011;55512;50.102;19.958;2023-08-30T11:17:27;9.90;;;4.30;;
68509;SDS011;55512;50.102;19.958;2023-08-30T11:19:58;11.50;;;4.80;;
68509;SDS011;55512;50.102;19.958;2023-08-30T11:22:30;9.90;;;5.10;;
68509;SDS011;55512;50.102;19.958;2023-08-30T11:24:56;8.70;;;4.40;;
68509;SDS011;55512;50.102;19.958;2023-08-30T11:27:21;12.40;;;5.00;;
68509;SDS011;55512;50.102;19.958;2023-08-30T11:29:47;27.50;;;7.40;;
68509;SDS011;55512;50.102;19.958;2023-08-30T11:32:12;10.20;;;5.00;;
68509;SDS011;55512;50.102;19.958;2023-08-30T11:34:37;10.80;;;4.80;;
68509;SDS011;55512;50.102;19.958;2023-08-30T11:37:03;10.20;;;5.40;;
68509;SDS011;55512;50.102;19.958;2023-08-30T11:39:29;10.60;;;4.60;;
68509;SDS011;55512;50.102;19.958;2023-08-30T11:41:55;11.00;;;5.00;;
68509;SDS011;55512;50.102;19.958;2023-08-30T11:44:24;9.50;;;4.70;;
68509;SDS011;55512;50.102;19.958;2023-08-30T11:46:58;8.50;;;4.70;;
68509;SDS011;55512;50.102;19.958;2023-08-30T11:49:24;10.60;;;4.90;;
68509;SDS011;55512;50.102;19.958;2023-08-30T11:51:50;7.70;;;4.30;;
68509;SDS011;55512;50.102;19.958;2023-08-30T11:54:19;9.30;;;4.50;;
68509;SDS011;55512;50.102;19.958;2023-08-30T11:56:46;8.80;;;5.10;;
68509;SDS011;55512;50.102;19.958;2023-08-30T11:59:21;9.20;;;5.20;;
68509;SDS011;55512;50.102;19.958;2023-08-30T12:01:48;13.60;;;5.40;;
68509;SDS011;55512;50.102;19.958;2023-08-30T12:04:15;8.50;;;4.90;;
68509;SDS011;55512;50.102;19.958;2023-08-30T12:06:41;8.80;;;4.80;;
68509;SDS011;55512;50.102;19.958;2023-08-30T12:09:11;10.80;;;5.30;;
68509;SDS011;55512;50.102;19.958;2023-08-30T12:11:38;11.70;;;5.40;;
68509;SDS011;55512;50.102;19.958;2023-08-30T12:14:03;9.90;;;5.30;;
68509;SDS011;55512;50.102;19.958;2023-08-30T12:16:30;8.60;;;5.00;;
68509;SDS011;55512;50.102;19.958;2023-08-30T12:18:56;10.70;;;5.50;;
68509;SDS011;55512;50.102;19.958;2023-08-30T12:21:44;12.20;;;5.20;;
68509;SDS011;55512;50.102;19.958;2023-08-30T12:24:12;11.30;;;5.60;;
68509;SDS011;55512;50.102;19.958;2023-08-30T12:26:38;12.00;;;6.00;;
68509;SDS011;55512;50.102;19.958;2023-08-30T12:29:04;12.40;;;6.20;;
68509;SDS011;55512;50.102;19.958;2023-08-30T12:31:32;9.90;;;5.30;;
68509;SDS011;55512;50.102;19.958;2023-08-30T12:33:58;12.70;;;5.80;;
68509;SDS011;55512;50.102;19.958;2023-08-30T12:36:23;25.70;;;7.40;;
68509;SDS011;55512;50.102;19.958;2023-08-30T12:38:49;13.60;;;5.30;;
68509;SDS011;55512;50.102;19.958;2023-08-30T12:41:15;15.80;;;7.30;;
68509;SDS011;55512;50.102;19.958;2023-08-30T12:43:40;14.40;;;6.90;;
68509;SDS011;55512;50.102;19.958;2023-08-30T12:46:06;12.00;;;6.90;;
68509;SDS011;55512;50.102;19.958;2023-08-30T12:48:32;10.90;;;5.80;;
68509;SDS011;55512;50.102;19.958;2023-08-30T12:50:57;12.00;;;6.70;;
68509;SDS011;55512;50.102;19.958;2023-08-30T12:53:23;12.80;;;6.70;;
68509;SDS011;55512;50.102;19.958;2023-08-30T12:55:48;14.20;;;7.20;;
68509;SDS011;55512;50.102;19.958;2023-08-30T12:58:14;13.20;;;7.10;;
68509;SDS011;55512;50.102;19.958;2023-08-30T13:00:39;14.10;;;6.50;;
68509;SDS011;55512;50.102;19.958;2023-08-30T13:03:05;11.80;;;6.80;;
68509;SDS011;55512;50.102;19.958;2023-08-30T13:05:31;12.10;;;7.30;;
68509;SDS011;55512;50.102;19.958;2023-08-30T13:07:58;13.10;;;7.10;;
68509;SDS011;55512;50.102;19.958;2023-08-30T13:10:24;15.00;;;8.10;;
68509;SDS011;55512;50.102;19.958;2023-08-30T13:12:50;14.00;;;7.20;;
68509;SDS011;55512;50.102;19.958;2023-08-30T13:15:15;14.80;;;8.00;;
68509;SDS011;55512;50.102;19.958;2023-08-30T13:17:41;13.50;;;7.80;;
68509;SDS011;55512;50.102;19.958;2023-08-30T13:20:06;15.40;;;8.40;;
68509;SDS011;55512;50.102;19.958;2023-08-30T13:22:32;15.40;;;8.90;;
68509;SDS011;55512;50.102;19.958;2023-08-30T13:24:58;14.70;;;8.40;;
68509;SDS011;55512;50.102;19.958;2023-08-30T13:27:23;15.80;;;8.70;;
68509;SDS011;55512;50.102;19.958;2023-08-30T13:29:49;15.10;;;9.00;;
68509;SDS011;55512;50.102;19.958;2023-08-30T13:32:15;14.90;;;8.60;;
68509;SDS011;55512;50.102;19.958;2023-08-30T13:34:40;16.00;;;9.30;;
68509;SDS011;55512;50.102;19.958;2023-08-30T13:37:08;15.80;;;8.60;;
68509;SDS011;55512;50.102;19.958;2023-08-30T13:39:34;17.50;;;9.90;;
68509;SDS011;55512;50.102;19.958;2023-08-30T13:41:59;17.50;;;10.20;;
68509;SDS011;55512;50.102;19.958;2023-08-30T13:44:25;13.90;;;8.30;;
68509;SDS011;55512;50.102;19.958;2023-08-30T13:46:50;16.60;;;9.60;;
68509;SDS011;55512;50.102;19.958;2023-08-30T13:49:16;15.60;;;9.00;;
68509;SDS011;55512;50.102;19.958;2023-08-30T13:51:44;15.90;;;8.70;;
68509;SDS011;55512;50.102;19.958;2023-08-30T13:54:10;17.50;;;9.40;;
68509;SDS011;55512;50.102;19.958;2023-08-30T13:56:36;14.40;;;8.70;;
68509;SDS011;55512;50.102;19.958;2023-08-30T13:59:03;16.10;;;8.70;;
68509;SDS011;55512;50.102;19.958;2023-08-30T14:01:31;14.90;;;8.30;;
68509;SDS011;55512;50.102;19.958;2023-08-30T14:03:56;16.80;;;9.20;;
68509;SDS011;55512;50.102;19.958;2023-08-30T14:06:22;21.40;;;9.90;;
68509;SDS011;55512;50.102;19.958;2023-08-30T14:08:47;14.90;;;7.80;;
68509;SDS011;55512;50.102;19.958;2023-08-30T14:11:18;14.70;;;8.10;;
68509;SDS011;55512;50.102;19.958;2023-08-30T14:13:44;14.70;;;8.60;;
68509;SDS011;55512;50.102;19.958;2023-08-30T14:16:10;21.00;;;9.30;;
68509;SDS011;55512;50.102;19.958;2023-08-30T14:18:35;15.40;;;8.30;;
68509;SDS011;55512;50.102;19.958;2023-08-30T14:21:01;16.30;;;8.10;;
68509;SDS011;55512;50.102;19.958;2023-08-30T14:23:28;13.20;;;8.20;;
68509;SDS011;55512;50.102;19.958;2023-08-30T14:26:05;13.40;;;7.50;;
68509;SDS011;55512;50.102;19.958;2023-08-30T14:28:39;15.80;;;8.00;;
68509;SDS011;55512;50.102;19.958;2023-08-30T14:31:09;11.50;;;7.20;;
68509;SDS011;55512;50.102;19.958;2023-08-30T14:33:36;11.10;;;6.30;;